Time;durP1;ratioP1;P1;durP2;ratioP2;P2;SDS_P1;SDS_P2;PMS_P1;PMS_P2;Temp;Humidity;BMP_temperature;BMP_pressure;BME280_temperature;BME280_humidity;BME280_pressure;Samples;Min_cycle;Max_cycle;Signal;HPM_P1;HPM_P2
2023/03/05 00:02:57;;;;;;;2.45;0.77;;;18.40;50.00;;;;;;6268837;28;20017;-68
2023/03/05 00:05:58;;;;;;;1.42;0.80;;;18.40;50.00;;;;;;6251069;28;20067;-68
2023/03/05 00:08:59;;;;;;;1.42;0.73;;;18.40;50.00;;;;;;6249857;28;20035;-68
2023/03/05 00:11:59;;;;;;;1.98;0.93;;;18.40;50.00;;;;;;6250814;28;20120;-68
2023/03/05 00:15:00;;;;;;;2.53;1.00;;;18.40;50.00;;;;;;6260179;28;20048;-68
2023/03/05 00:18:01;;;;;;;3.00;0.95;;;18.40;49.90;;;;;;6268698;28;20072;-68
2023/03/05 00:21:02;;;;;;;2.08;0.90;;;18.40;50.00;;;;;;6268280;28;20033;-68
2023/03/05 00:24:06;;;;;;;1.85;0.85;;;18.40;50.00;;;;;;6270646;28;20025;-68
2023/03/05 00:27:07;;;;;;;2.25;0.80;;;18.40;50.00;;;;;;6275220;28;20017;-68
2023/03/05 00:30:08;;;;;;;1.67;0.70;;;18.40;50.00;;;;;;6275914;28;20485;-68
2023/03/05 00:33:11;;;;;;;1.58;0.70;;;18.40;50.00;;;;;;6293818;28;20021;-68
2023/03/05 00:36:12;;;;;;;2.70;0.68;;;18.40;50.00;;;;;;6243923;28;20040;-68
2023/03/05 00:39:14;;;;;;;2.17;0.90;;;18.40;50.00;;;;;;6244005;28;20025;-68
2023/03/05 00:42:14;;;;;;;1.92;0.60;;;18.40;50.00;;;;;;6243730;28;20494;-68
2023/03/05 00:45:15;;;;;;;2.28;0.90;;;18.40;50.00;;;;;;6244106;28;20072;-67
2023/03/05 00:48:16;;;;;;;1.15;0.63;;;18.40;50.00;;;;;;6225988;28;20064;-68
2023/03/05 00:51:16;;;;;;;1.05;0.70;;;18.40;50.00;;;;;;6243569;28;20083;-68
2023/03/05 00:54:17;;;;;;;0.90;0.60;;;18.40;50.00;;;;;;6243679;28;20548;-68
2023/03/05 00:57:18;;;;;;;2.22;0.70;;;18.40;50.00;;;;;;6243902;28;20030;-68
2023/03/05 01:00:19;;;;;;;2.35;0.80;;;18.40;50.00;;;;;;6243257;28;20083;-68
2023/03/05 01:03:19;;;;;;;1.10;0.77;;;18.40;50.00;;;;;;6226355;28;20026;-68
2023/03/05 01:06:20;;;;;;;1.83;0.70;;;18.40;50.00;;;;;;6243765;28;20036;-69
2023/03/05 01:09:26;;;;;;;2.03;0.80;;;18.40;50.00;;;;;;6225872;28;20486;-67
2023/03/05 01:12:26;;;;;;;1.58;0.77;;;18.40;50.00;;;;;;6243383;28;20053;-68
2023/03/05 01:15:27;;;;;;;2.28;0.90;;;18.40;50.00;;;;;;6243452;28;20071;-68
2023/03/05 01:18:28;;;;;;;2.15;1.02;;;18.40;50.00;;;;;;6243276;28;20034;-68
2023/03/05 01:21:29;;;;;;;1.63;0.90;;;18.40;50.00;;;;;;6246988;28;20052;-68
2023/03/05 01:24:31;;;;;;;1.85;0.82;;;18.40;50.00;;;;;;6247920;28;20025;-68
2023/03/05 01:27:32;;;;;;;2.00;0.95;;;18.40;50.00;;;;;;6248019;28;20021;-68
2023/03/05 01:30:33;;;;;;;1.35;0.70;;;18.40;50.00;;;;;;6229843;28;20036;-68
2023/03/05 01:33:34;;;;;;;1.48;0.63;;;18.40;50.00;;;;;;6250654;28;20017;-67
2023/03/05 01:36:35;;;;;;;0.93;0.77;;;18.40;50.00;;;;;;6246316;28;20037;-68
2023/03/05 01:39:36;;;;;;;2.53;0.80;;;18.40;50.00;;;;;;6247686;28;20526;-68
2023/03/05 01:42:38;;;;;;;1.60;0.70;;;18.40;50.00;;;;;;6247276;28;20052;-68
2023/03/05 01:46:17;;;;;;;1.48;0.90;;;18.40;50.00;;;;;;6247673;28;20021;-68
2023/03/05 01:49:40;;;;;;;1.20;0.80;;;18.40;50.00;;;;;;6248390;28;20052;-68
2023/03/05 01:52:45;;;;;;;2.17;0.93;;;18.40;50.00;;;;;;6272055;28;20027;-68
2023/03/05 01:55:46;;;;;;;2.05;0.93;;;18.40;49.90;;;;;;6285921;28;20126;-68
2023/03/05 01:58:46;;;;;;;2.15;0.80;;;18.40;49.90;;;;;;6279056;28;20044;-68
2023/03/05 02:01:52;;;;;;;1.88;0.77;;;18.40;50.00;;;;;;6296407;28;20104;-68
2023/03/05 02:04:59;;;;;;;1.15;0.55;;;18.40;50.60;;;;;;6295531;28;20067;-68
2023/03/05 02:08:03;;;;;;;1.25;0.70;;;18.40;49.90;;;;;;6296500;28;20082;-67
2023/03/05 02:11:04;;;;;;;2.37;1.10;;;18.40;50.00;;;;;;6296179;28;20489;-68
2023/03/05 02:14:06;;;;;;;0.82;0.60;;;18.40;50.00;;;;;;6296339;28;20025;-67
2023/03/05 02:17:09;;;;;;;1.77;0.73;;;18.40;49.90;;;;;;6296400;28;20020;-68
2023/03/05 02:20:20;;;;;;;1.65;0.70;;;18.40;49.90;;;;;;6296216;28;20016;-68
2023/03/05 02:23:24;;;;;;;0.93;0.68;;;18.40;49.90;;;;;;6296395;28;20050;-68
2023/03/05 02:26:24;;;;;;;1.45;0.85;;;18.40;49.90;;;;;;6296149;28;20099;-69
2023/03/05 02:29:28;;;;;;;1.33;0.70;;;18.40;49.90;;;;;;6296038;28;20435;-68
2023/03/05 02:32:28;;;;;;;2.35;0.70;;;18.40;49.90;;;;;;6294849;28;20031;-71
2023/03/05 02:35:29;;;;;;;1.15;0.60;;;18.40;49.90;;;;;;6295149;28;20055;-70
2023/03/05 02:38:30;;;;;;;1.80;0.70;;;18.40;49.80;;;;;;6295252;28;20029;-70
2023/03/05 02:41:31;;;;;;;1.85;0.88;;;18.40;49.90;;;;;;6295049;28;20099;-71
2023/03/05 02:44:34;;;;;;;1.10;0.60;;;18.40;49.90;;;;;;6293822;28;20028;-70
2023/03/05 02:47:34;;;;;;;1.98;0.50;;;18.40;49.80;;;;;;6268696;28;20061;-70
2023/03/05 02:50:38;;;;;;;1.83;0.85;;;18.40;49.80;;;;;;6257542;28;20194;-71
2023/03/05 02:53:39;;;;;;;1.35;0.88;;;18.40;49.90;;;;;;6294424;28;20023;-70
2023/03/05 02:56:40;;;;;;;1.63;0.65;;;18.40;49.80;;;;;;6294776;28;20025;-71
2023/03/05 02:59:41;;;;;;;1.83;0.77;;;18.40;49.80;;;;;;6294581;28;20024;-70
2023/03/05 03:02:43;;;;;;;1.60;0.70;;;18.40;49.80;;;;;;6276580;28;20142;-70
2023/03/05 03:05:44;;;;;;;1.40;0.60;;;18.40;49.70;;;;;;6294183;28;20358;-71
2023/03/05 03:08:45;;;;;;;0.82;0.50;;;18.40;49.80;;;;;;6294596;28;20079;-71
2023/03/05 03:11:47;;;;;;;0.85;0.55;;;18.40;49.70;;;;;;6276276;28;20551;-71
2023/03/05 03:14:49;;;;;;;1.27;0.65;;;18.40;49.70;;;;;;6275970;28;20028;-70
2023/03/05 03:17:50;;;;;;;1.60;0.80;;;18.40;49.80;;;;;;6294048;28;20059;-70
2023/03/05 03:20:50;;;;;;;0.70;0.55;;;18.40;49.80;;;;;;6294363;28;20017;-70
2023/03/05 03:23:52;;;;;;;2.15;1.02;;;18.40;49.80;;;;;;6294003;28;20035;-71
2023/03/05 03:26:52;;;;;;;1.70;0.80;;;18.40;49.80;;;;;;6294122;28;20107;-70
2023/03/05 03:29:53;;;;;;;2.20;0.70;;;18.40;49.80;;;;;;6294467;28;20027;-70
2023/03/05 03:32:54;;;;;;;0.93;0.65;;;18.40;49.80;;;;;;6276004;28;20357;-70
2023/03/05 03:35:54;;;;;;;2.35;0.93;;;18.40;49.70;;;;;;6269132;28;20109;-71
2023/03/05 03:38:55;;;;;;;1.65;0.50;;;18.40;49.70;;;;;;6275633;28;20028;-71
2023/03/05 03:41:56;;;;;;;1.80;0.80;;;18.40;49.70;;;;;;6293764;28;20425;-70
2023/03/05 03:44:56;;;;;;;0.95;0.50;;;18.40;49.70;;;;;;6292258;28;20428;-70
2023/03/05 03:47:57;;;;;;;2.05;0.73;;;18.40;49.70;;;;;;6293834;28;20032;-70
2023/03/05 03:50:58;;;;;;;0.90;0.50;;;18.40;49.80;;;;;;6292280;28;20048;-70
2023/03/05 03:53:59;;;;;;;0.60;0.45;;;18.30;49.70;;;;;;6293439;28;20142;-70
2023/03/05 03:57:00;;;;;;;2.15;0.50;;;18.30;49.70;;;;;;6294442;28;20103;-70
2023/03/05 04:00:01;;;;;;;1.02;0.65;;;18.40;49.80;;;;;;6293586;28;20443;-71
2023/03/05 04:03:04;;;;;;;0.95;0.50;;;18.40;49.70;;;;;;6293474;28;20017;-71
2023/03/05 04:06:06;;;;;;;1.20;0.50;;;18.40;49.70;;;;;;6293441;28;20104;-71
2023/03/05 04:09:07;;;;;;;1.15;0.60;;;18.40;49.70;;;;;;6293252;28;20032;-71
2023/03/05 04:12:08;;;;;;;1.73;0.60;;;18.40;49.70;;;;;;6275612;28;20481;-70
2023/03/05 04:15:09;;;;;;;1.63;0.60;;;18.30;49.60;;;;;;6275131;28;20119;-70
2023/03/05 04:18:10;;;;;;;1.67;0.65;;;18.30;49.60;;;;;;6275344;28;20070;-71
2023/03/05 04:21:11;;;;;;;1.38;0.57;;;18.40;49.70;;;;;;6293395;28;20019;-71
2023/03/05 04:24:13;;;;;;;1.98;0.60;;;18.30;49.70;;;;;;6293402;28;20040;-70
2023/03/05 04:27:13;;;;;;;1.38;0.68;;;18.30;49.70;;;;;;6292809;28;20069;-70
2023/03/05 04:30:14;;;;;;;0.70;0.50;;;18.30;49.70;;;;;;6293301;28;20033;-70
2023/03/05 04:33:15;;;;;;;1.40;0.68;;;18.30;49.60;;;;;;6267522;28;20078;-70
2023/03/05 04:36:16;;;;;;;0.82;0.50;;;18.30;49.70;;;;;;6293155;28;20485;-70
2023/03/05 04:39:19;;;;;;;2.05;0.77;;;18.30;49.70;;;;;;6292850;28;20025;-71
2023/03/05 04:42:20;;;;;;;2.03;0.80;;;18.30;49.70;;;;;;6293251;28;20032;-70
2023/03/05 04:45:22;;;;;;;1.63;0.57;;;18.40;49.70;;;;;;6292879;28;20389;-71
2023/03/05 04:48:22;;;;;;;1.27;0.60;;;18.40;49.70;;;;;;6291523;28;20033;-70
2023/03/05 04:51:23;;;;;;;1.08;0.63;;;18.30;49.70;;;;;;6250360;28;20068;-71
2023/03/05 04:54:24;;;;;;;2.03;0.80;;;18.40;49.80;;;;;;6250688;28;20120;-70
2023/03/05 04:57:24;;;;;;;1.50;0.57;;;18.40;49.80;;;;;;6273171;28;20031;-70
2023/03/05 05:00:34;;;;;;;1.85;0.73;;;18.30;49.70;;;;;;6272323;28;20036;-71
2023/03/05 05:03:34;;;;;;;0.73;0.40;;;18.30;49.70;;;;;;6273099;28;20401;-70
2023/03/05 05:06:35;;;;;;;1.40;0.60;;;18.30;49.70;;;;;;6272626;28;20028;-70
2023/03/05 05:09:38;;;;;;;1.38;0.57;;;18.30;49.70;;;;;;6272746;28;20362;-71
2023/03/05 05:12:39;;;;;;;1.52;0.43;;;18.30;49.70;;;;;;6272453;28;20033;-70
2023/03/05 05:15:40;;;;;;;0.93;0.47;;;18.30;49.70;;;;;;6272092;28;20494;-71
2023/03/05 05:18:41;;;;;;;0.82;0.60;;;18.30;49.70;;;;;;6272235;28;20515;-71
2023/03/05 05:21:42;;;;;;;0.98;0.47;;;18.30;49.70;;;;;;6272720;28;20025;-70
2023/03/05 05:24:43;;;;;;;0.85;0.52;;;18.30;49.70;;;;;;6272489;28;20111;-71
2023/03/05 05:27:44;;;;;;;1.13;0.55;;;18.30;49.70;;;;;;6271866;28;20073;-71
2023/03/05 05:30:45;;;;;;;2.40;0.57;;;18.30;49.70;;;;;;6272063;28;20025;-70
2023/03/05 05:33:46;;;;;;;0.85;0.40;;;18.30;49.70;;;;;;6271732;28;20017;-70
2023/03/05 05:36:47;;;;;;;0.98;0.50;;;18.30;49.70;;;;;;6271960;28;20030;-70
2023/03/05 05:39:49;;;;;;;1.48;0.50;;;18.30;49.70;;;;;;6254076;28;20040;-71
2023/03/05 05:42:49;;;;;;;0.77;0.45;;;18.30;49.80;;;;;;6272021;28;20017;-70
2023/03/05 05:45:50;;;;;;;1.48;0.63;;;18.30;49.80;;;;;;6271570;28;20025;-70
2023/03/05 05:48:50;;;;;;;1.00;0.50;;;18.30;49.80;;;;;;6271173;28;20048;-71
2023/03/05 05:51:51;;;;;;;1.17;0.70;;;18.30;49.80;;;;;;6271301;28;20024;-71
2023/03/05 05:54:52;;;;;;;1.40;0.60;;;18.30;49.80;;;;;;6271612;28;20041;-70
2023/03/05 05:57:52;;;;;;;1.17;0.50;;;18.30;49.90;;;;;;6253729;28;20028;-70
2023/03/05 06:00:53;;;;;;;1.13;0.60;;;18.30;49.90;;;;;;6269262;28;20425;-71
2023/03/05 06:03:55;;;;;;;0.65;0.32;;;18.30;49.80;;;;;;6245205;28;20029;-70
2023/03/05 06:06:57;;;;;;;0.73;0.45;;;18.30;49.80;;;;;;6246321;28;20021;-70
2023/03/05 06:09:57;;;;;;;1.55;0.55;;;18.30;49.90;;;;;;6246635;28;20021;-70
2023/03/05 06:12:58;;;;;;;1.20;0.52;;;18.30;49.90;;;;;;6246632;28;20390;-70
2023/03/05 06:16:02;;;;;;;1.25;0.60;;;18.30;49.80;;;;;;6268049;28;20397;-71
2023/03/05 06:19:03;;;;;;;2.03;0.60;;;18.30;49.80;;;;;;6252813;28;20037;-71
2023/03/05 06:22:04;;;;;;;1.85;0.60;;;18.30;49.90;;;;;;6270509;28;20028;-71
2023/03/05 06:25:06;;;;;;;0.55;0.50;;;18.30;49.80;;;;;;6270790;28;20029;-71
2023/03/05 06:28:07;;;;;;;1.23;0.40;;;18.30;49.80;;;;;;6252537;28;20029;-70
2023/03/05 06:31:17;;;;;;;0.88;0.50;;;18.30;49.90;;;;;;6270830;28;20025;-70
2023/03/05 06:34:17;;;;;;;0.80;0.50;;;18.30;49.90;;;;;;6252185;28;20017;-70
2023/03/05 06:37:18;;;;;;;1.20;0.50;;;18.30;49.90;;;;;;6270398;28;20036;-70
2023/03/05 06:40:19;;;;;;;1.52;0.60;;;18.30;49.90;;;;;;6252061;28;20057;-71
2023/03/05 06:43:19;;;;;;;1.88;0.60;;;18.30;50.50;;;;;;6252568;28;20029;-70
2023/03/05 06:46:23;;;;;;;0.95;0.57;;;18.30;49.90;;;;;;6244287;28;20105;-70
2023/03/05 06:49:24;;;;;;;1.02;0.55;;;18.30;49.90;;;;;;6249215;28;20041;-70
2023/03/05 06:52:26;;;;;;;1.85;0.60;;;18.30;49.90;;;;;;6252728;28;20093;-70
2023/03/05 06:55:26;;;;;;;0.98;0.45;;;18.30;49.90;;;;;;6269880;28;20079;-70
2023/03/05 06:58:27;;;;;;;0.47;0.40;;;18.30;49.90;;;;;;6270097;28;20029;-70
2023/03/05 07:01:28;;;;;;;1.63;0.50;;;18.30;49.90;;;;;;6270008;28;20106;-70
2023/03/05 07:04:28;;;;;;;1.20;0.52;;;18.30;49.90;;;;;;6270184;28;20486;-70
2023/03/05 07:07:29;;;;;;;0.63;0.40;;;18.30;50.60;;;;;;6269489;28;20446;-71
2023/03/05 07:10:31;;;;;;;0.93;0.50;;;18.20;49.80;;;;;;6269519;28;20533;-70
2023/03/05 07:13:31;;;;;;;0.85;0.40;;;18.30;49.90;;;;;;6269629;28;20510;-70
2023/03/05 07:16:34;;;;;;;1.48;0.63;;;18.30;49.90;;;;;;6269439;28;20108;-71
2023/03/05 07:19:36;;;;;;;0.60;0.38;;;18.30;49.80;;;;;;6250851;28;20048;-70
2023/03/05 07:22:37;;;;;;;0.63;0.47;;;18.30;49.90;;;;;;6269145;28;20025;-71
2023/03/05 07:25:38;;;;;;;1.08;0.47;;;18.30;49.80;;;;;;6268971;28;20445;-70
2023/03/05 07:28:39;;;;;;;0.98;0.40;;;18.30;49.80;;;;;;6252106;28;20031;-70
2023/03/05 07:31:39;;;;;;;0.40;0.30;;;18.30;49.80;;;;;;6268781;28;20471;-71
2023/03/05 07:34:40;;;;;;;1.00;0.40;;;18.20;49.80;;;;;;6269022;28;20591;-70
2023/03/05 07:37:41;;;;;;;0.88;0.40;;;18.20;49.70;;;;;;6268769;28;20478;-70
2023/03/05 07:40:42;;;;;;;0.50;0.32;;;18.30;49.80;;;;;;6250856;28;20024;-70
2023/03/05 07:43:45;;;;;;;0.63;0.40;;;18.20;49.80;;;;;;6268465;28;20020;-70
2023/03/05 07:46:46;;;;;;;1.08;0.40;;;18.20;49.80;;;;;;6269088;28;20024;-72
2023/03/05 07:49:47;;;;;;;0.47;0.32;;;18.30;49.90;;;;;;6268402;28;20057;-70
2023/03/05 07:52:47;;;;;;;1.05;0.40;;;18.20;49.70;;;;;;6268626;28;20083;-70
2023/03/05 07:55:48;;;;;;;0.90;0.40;;;18.20;49.70;;;;;;6268234;28;20477;-70
2023/03/05 07:58:49;;;;;;;1.17;0.60;;;18.20;49.70;;;;;;6268678;28;20450;-70
2023/03/05 08:01:49;;;;;;;0.88;0.50;;;18.20;49.70;;;;;;6268384;28;20740;-70
2023/03/05 08:04:50;;;;;;;2.47;0.60;;;18.20;49.70;;;;;;6250727;28;20021;-70
2023/03/05 08:07:51;;;;;;;1.90;0.60;;;18.20;49.70;;;;;;6268513;28;20487;-70
2023/03/05 08:10:52;;;;;;;0.95;0.40;;;18.20;49.70;;;;;;6269378;28;20013;-70
2023/03/05 08:13:52;;;;;;;0.63;0.40;;;18.20;49.80;;;;;;6250954;28;20137;-70
2023/03/05 08:16:53;;;;;;;0.68;0.50;;;18.20;49.80;;;;;;6268292;28;20029;-70
2023/03/05 08:19:57;;;;;;;0.65;0.30;;;18.20;49.80;;;;;;6268156;28;20076;-70
2023/03/05 08:22:57;;;;;;;1.40;0.47;;;18.20;49.70;;;;;;6242270;28;20026;-71
2023/03/05 08:25:58;;;;;;;0.70;0.40;;;18.30;49.80;;;;;;6257672;28;20423;-70
2023/03/05 08:28:59;;;;;;;0.98;0.50;;;18.20;49.70;;;;;;6275740;28;20078;-70
2023/03/05 08:32:00;;;;;;;0.77;0.47;;;18.20;49.70;;;;;;6298119;28;20025;-70
2023/03/05 08:35:03;;;;;;;0.68;0.35;;;18.20;49.70;;;;;;6283164;28;20071;-70
2023/03/05 08:38:04;;;;;;;1.05;0.40;;;18.20;49.70;;;;;;6254764;28;20032;-70
2023/03/05 08:41:06;;;;;;;1.23;0.50;;;18.30;49.80;;;;;;6272919;28;20025;-71
2023/03/05 08:44:07;;;;;;;0.82;0.32;;;18.20;49.70;;;;;;6272994;28;20029;-70
2023/03/05 08:47:08;;;;;;;1.15;0.50;;;18.20;49.60;;;;;;6273020;28;20063;-70
2023/03/05 08:50:09;;;;;;;0.77;0.40;;;18.20;49.70;;;;;;6254620;28;20044;-71
2023/03/05 08:53:10;;;;;;;2.72;0.50;;;18.20;49.60;;;;;;6273116;28;20067;-71
2023/03/05 08:56:11;;;;;;;0.65;0.32;;;18.20;49.70;;;;;;6272778;28;20024;-70
2023/03/05 08:59:12;;;;;;;0.52;0.40;;;18.20;49.60;;;;;;6272852;28;20163;-70
2023/03/05 09:02:12;;;;;;;1.05;0.40;;;18.20;49.70;;;;;;6272901;28;20029;-70
2023/03/05 09:05:13;;;;;;;1.23;0.40;;;18.20;49.60;;;;;;6272624;28;20626;-70
2023/03/05 09:08:15;;;;;;;0.88;0.40;;;18.20;49.60;;;;;;6254648;28;20078;-71
2023/03/05 09:11:15;;;;;;;0.70;0.40;;;18.20;49.60;;;;;;6254491;28;20028;-70
2023/03/05 09:14:16;;;;;;;1.40;0.60;;;18.20;49.60;;;;;;6272480;28;20139;-70
2023/03/05 09:17:17;;;;;;;1.27;0.63;;;18.20;49.60;;;;;;6271577;28;20025;-70
2023/03/05 09:20:18;;;;;;;2.28;0.50;;;18.20;49.50;;;;;;6272509;28;20032;-71
2023/03/05 09:23:19;;;;;;;0.77;0.38;;;18.20;49.50;;;;;;6253909;28;20027;-71
2023/03/05 09:26:20;;;;;;;0.70;0.35;;;18.20;49.50;;;;;;6272007;28;20024;-70
2023/03/05 09:29:21;;;;;;;1.27;0.70;;;18.20;49.50;;;;;;6271644;28;20092;-70
2023/03/05 09:32:22;;;;;;;1.73;0.50;;;18.20;49.40;;;;;;6272299;28;20052;-71
2023/03/05 09:35:22;;;;;;;0.75;0.50;;;18.20;49.40;;;;;;6271447;28;20035;-70
2023/03/05 09:38:24;;;;;;;0.73;0.38;;;18.20;49.40;;;;;;6254061;28;20453;-70
2023/03/05 09:41:50;;;;;;;1.02;0.47;;;18.20;49.40;;;;;;6253248;28;20028;-71
2023/03/05 09:44:57;;;;;;;;;;;18.20;49.50;;;;;;6271857;28;20480;-70
2023/03/05 09:48:01;;;;;;;0.60;0.40;;;18.20;49.50;;;;;;6253641;28;20016;-70
2023/03/05 09:51:03;;;;;;;0.80;0.47;;;18.20;49.40;;;;;;6271241;28;20057;-70
2023/03/05 09:54:12;;;;;;;2.50;0.40;;;18.20;49.50;;;;;;6272867;28;20092;-69
2023/03/05 09:57:21;;;;;;;0.85;0.50;;;18.20;49.50;;;;;;6271093;28;20048;-69
2023/03/05 10:00:39;;;;;;;1.45;0.50;;;18.20;49.40;;;;;;6271030;28;20069;-69
2023/03/05 10:03:48;;;;;;;0.90;0.43;;;18.20;49.40;;;;;;6271058;28;20017;-69
2023/03/05 10:06:59;;;;;;;1.00;0.38;;;18.20;49.40;;;;;;6252956;28;20031;-69
2023/03/05 10:10:08;;;;;;;1.00;0.40;;;18.20;49.40;;;;;;6271597;28;20039;-69
2023/03/05 13:34:25;;;;;;;0.75;0.43;;;18.20;49.50;;;;;;6268376;28;20053;-75
2023/03/05 13:37:31;;;;;;;0.82;0.32;;;18.20;49.50;;;;;;6271794;28;20029;-74
2023/03/05 13:40:32;;;;;;;2.67;0.47;;;18.10;49.70;;;;;;6273950;28;20392;-75
2023/03/05 13:43:33;;;;;;;5.93;0.80;;;18.10;48.60;;;;;;6261170;28;20033;-70
2023/03/05 13:46:37;;;;;;;3.70;0.80;;;18.10;46.50;;;;;;6270609;28;20021;-70
2023/03/05 13:49:38;;;;;;;7.07;1.08;;;18.10;46.00;;;;;;6270829;28;20017;-70
2023/03/05 13:52:38;;;;;;;11.10;1.05;;;18.20;45.30;;;;;;6262944;28;20053;-70
2023/03/05 13:55:39;;;;;;;7.38;1.10;;;18.20;45.60;;;;;;6252082;28;20025;-70
2023/03/05 13:58:46;;;;;;;3.63;0.88;;;18.10;46.10;;;;;;6270377;28;20028;-70
2023/03/05 14:01:48;;;;;;;3.65;0.90;;;18.20;46.60;;;;;;6256684;28;20907;-69
2023/03/05 14:04:49;;;;;;;7.97;0.98;;;18.10;46.60;;;;;;6294919;28;20039;-69
2023/03/05 14:07:51;;;;;;;4.78;1.17;;;18.10;46.80;;;;;;6280786;28;20258;-69
2023/03/05 14:10:53;;;;;;;1.42;0.68;;;18.20;47.00;;;;;;6270466;28;20057;-70
2023/03/05 14:14:17;;;;;;;3.58;0.80;;;18.20;47.20;;;;;;6270128;28;20033;-70
2023/03/05 14:17:22;;;;;;;5.75;0.95;;;18.20;47.40;;;;;;6259558;28;20029;-69
2023/03/05 14:20:28;;;;;;;3.10;0.93;;;18.20;47.70;;;;;;6271527;28;20037;-70
2023/03/05 14:23:39;;;;;;;4.88;0.85;;;18.10;47.80;;;;;;6277034;28;20051;-70
2023/03/05 14:26:48;;;;;;;7.25;0.88;;;18.10;47.80;;;;;;6268851;28;20013;-70
2023/03/05 14:29:49;;;;;;;4.82;0.70;;;18.20;47.90;;;;;;6255142;28;20017;-69
2023/03/05 14:32:54;;;;;;;10.43;0.70;;;18.20;48.00;;;;;;6269896;28;20070;-69
2023/03/05 14:35:56;;;;;;;6.18;1.15;;;18.20;48.10;;;;;;6269539;28;20049;-70
2023/03/05 14:38:58;;;;;;;7.03;0.85;;;18.20;48.30;;;;;;6276770;28;20028;-70
2023/03/05 14:42:34;;;;;;;5.97;0.80;;;18.10;48.20;;;;;;6286930;28;20020;-70
2023/03/05 14:45:42;;;;;;;5.82;1.00;;;18.20;48.40;;;;;;6269971;28;20020;-70
2023/03/05 14:48:43;;;;;;;3.70;0.82;;;18.10;48.30;;;;;;6256305;28;20083;-70
2023/03/05 14:51:45;;;;;;;5.60;0.90;;;18.10;48.30;;;;;;6289053;28;20029;-70
2023/03/05 14:54:47;;;;;;;8.45;0.80;;;18.10;48.50;;;;;;6269382;28;20017;-70
2023/03/05 14:57:50;;;;;;;2.60;0.82;;;18.10;48.60;;;;;;6269527;28;20502;-71
2023/03/05 15:00:51;;;;;;;8.23;1.00;;;18.10;48.50;;;;;;6293485;28;20081;-70
2023/03/05 15:03:52;;;;;;;4.78;0.90;;;18.10;48.60;;;;;;6294499;28;20016;-70
2023/03/05 15:06:53;;;;;;;4.93;0.90;;;18.10;48.70;;;;;;6264375;28;20028;-70
2023/03/05 15:09:54;;;;;;;5.07;0.80;;;18.20;48.70;;;;;;6294546;28;20389;-70
2023/03/05 15:12:54;;;;;;;3.53;0.73;;;18.20;48.70;;;;;;6293395;28;20024;-70
2023/03/05 15:15:56;;;;;;;2.90;0.85;;;18.10;48.60;;;;;;6294192;28;20059;-70
2023/03/05 15:18:57;;;;;;;4.65;1.15;;;18.20;48.70;;;;;;6277098;28;20535;-70
2023/03/05 15:21:58;;;;;;;9.32;0.98;;;18.20;48.80;;;;;;6275555;28;20032;-70
2023/03/05 15:24:59;;;;;;;4.28;0.52;;;18.20;48.80;;;;;;6257763;28;20045;-70
2023/03/05 15:28:00;;;;;;;3.45;0.82;;;18.20;48.80;;;;;;6260762;28;20517;-70
2023/03/05 15:31:01;;;;;;;13.05;0.93;;;18.20;48.80;;;;;;6269065;28;20029;-70
2023/03/05 15:34:02;;;;;;;8.57;0.95;;;18.10;48.70;;;;;;6245286;28;20024;-70
2023/03/05 15:37:03;;;;;;;3.45;0.70;;;18.20;48.70;;;;;;6268647;28;20094;-70
2023/03/05 15:40:04;;;;;;;1.17;0.60;;;18.20;48.90;;;;;;6284510;28;20033;-70
2023/03/05 15:43:05;;;;;;;4.30;0.80;;;18.20;49.00;;;;;;6257090;28;20017;-71
2023/03/05 15:46:06;;;;;;;7.82;1.15;;;18.20;48.80;;;;;;6273966;28;20532;-70
2023/03/05 15:49:07;;;;;;;8.27;0.63;;;18.20;49.00;;;;;;6268316;28;20049;-71
2023/03/05 15:52:08;;;;;;;4.18;0.73;;;18.20;48.90;;;;;;6268511;28;20047;-70
2023/03/05 15:55:09;;;;;;;3.28;0.80;;;18.20;49.00;;;;;;6268314;28;20024;-71
2023/03/05 15:58:15;;;;;;;5.18;0.80;;;18.20;49.00;;;;;;6256885;28;20025;-70
2023/03/05 16:01:18;;;;;;;5.43;0.85;;;18.20;49.00;;;;;;6293105;28;20066;-70
2023/03/05 16:04:18;;;;;;;4.85;0.75;;;18.20;49.10;;;;;;6256058;28;20056;-70
2023/03/05 16:07:20;;;;;;;2.28;0.70;;;18.20;49.10;;;;;;6243334;28;20032;-70
2023/03/05 16:10:25;;;;;;;6.10;0.70;;;18.20;49.10;;;;;;6272970;28;20035;-70
2023/03/05 16:13:28;;;;;;;3.35;0.57;;;18.20;49.10;;;;;;6285842;28;20095;-70
2023/03/05 16:16:31;;;;;;;7.30;0.98;;;18.20;49.10;;;;;;6268068;28;20501;-70
2023/03/05 16:19:35;;;;;;;3.15;0.80;;;18.20;49.10;;;;;;6267950;28;20127;-70
2023/03/05 16:22:36;;;;;;;7.43;0.75;;;18.20;49.20;;;;;;6267707;28;20025;-70
2023/03/05 16:25:37;;;;;;;3.42;0.77;;;18.20;49.10;;;;;;6261314;28;20053;-70
2023/03/05 16:28:38;;;;;;;3.47;0.82;;;18.20;49.20;;;;;;6268078;28;20025;-70
2023/03/05 16:31:41;;;;;;;5.93;0.93;;;18.20;49.20;;;;;;6250150;28;20087;-70
2023/03/05 16:34:42;;;;;;;4.35;0.70;;;18.20;49.10;;;;;;6273370;28;20465;-70
2023/03/05 16:37:42;;;;;;;5.45;1.17;;;18.20;49.20;;;;;;6267738;28;20040;-70
2023/03/05 16:40:43;;;;;;;4.38;0.80;;;18.20;49.20;;;;;;6267302;28;20029;-70
2023/03/05 16:43:44;;;;;;;4.43;0.77;;;18.20;49.20;;;;;;6264670;28;20100;-70
2023/03/05 16:46:49;;;;;;;3.00;0.45;;;18.20;49.20;;;;;;6242683;28;20025;-70
2023/03/05 16:49:49;;;;;;;9.73;1.00;;;18.20;49.20;;;;;;6242121;28;20545;-70
2023/03/05 16:52:50;;;;;;;5.68;0.70;;;18.20;49.30;;;;;;6247272;28;20029;-70
2023/03/05 16:55:51;;;;;;;7.05;0.70;;;18.20;49.20;;;;;;6265478;28;20032;-70
2023/03/05 16:58:54;;;;;;;2.60;0.80;;;18.20;49.20;;;;;;6265136;28;20112;-70
2023/03/05 17:01:55;;;;;;;6.53;1.10;;;18.20;49.30;;;;;;6254833;28;20498;-70
2023/03/05 17:04:56;;;;;;;6.03;0.68;;;18.20;49.20;;;;;;6247236;28;20043;-70
2023/03/05 17:07:57;;;;;;;3.13;1.20;;;18.20;49.20;;;;;;6247058;28;20559;-70
2023/03/05 17:10:58;;;;;;;2.58;0.52;;;18.20;49.30;;;;;;6222881;28;20021;-71
2023/03/05 17:13:58;;;;;;;2.22;0.73;;;18.20;49.30;;;;;;6240511;28;20518;-70
2023/03/05 17:17:00;;;;;;;1.23;0.57;;;18.20;49.30;;;;;;6221730;28;20032;-70
2023/03/05 17:20:02;;;;;;;1.13;0.50;;;18.20;49.30;;;;;;6228760;28;20073;-71
2023/03/05 17:23:03;;;;;;;3.72;1.02;;;18.20;49.30;;;;;;6245597;28;20041;-70
2023/03/05 17:26:09;;;;;;;1.45;0.70;;;18.20;49.20;;;;;;6227349;28;20052;-71
2023/03/05 17:29:10;;;;;;;1.23;0.50;;;18.20;49.30;;;;;;6246205;28;20113;-70
2023/03/05 17:32:11;;;;;;;2.70;0.80;;;18.20;49.30;;;;;;6254936;28;20021;-71
2023/03/05 17:35:19;;;;;;;5.30;0.73;;;18.20;49.30;;;;;;6237826;28;20041;-71
2023/03/05 17:38:20;;;;;;;1.42;0.40;;;18.20;49.40;;;;;;6244948;28;20033;-71
2023/03/05 17:41:21;;;;;;;2.30;0.70;;;18.20;49.40;;;;;;6247228;28;20547;-71
2023/03/05 17:44:22;;;;;;;2.85;0.70;;;18.20;49.40;;;;;;6244637;28;20017;-71
2023/03/05 17:47:25;;;;;;;5.57;0.70;;;18.20;49.40;;;;;;6245923;28;20025;-71
2023/03/05 17:50:26;;;;;;;3.95;0.60;;;18.20;49.40;;;;;;6249836;28;20024;-71
2023/03/05 17:53:26;;;;;;;2.90;0.60;;;18.20;49.40;;;;;;6244557;28;20021;-71
2023/03/05 17:56:27;;;;;;;6.72;1.02;;;18.20;49.40;;;;;;6245012;28;20021;-71
2023/03/05 17:59:28;;;;;;;3.42;0.80;;;18.20;49.40;;;;;;6234188;28;20113;-71
2023/03/05 18:02:28;;;;;;;3.47;0.60;;;18.20;49.40;;;;;;6233595;28;20556;-71
2023/03/05 18:05:29;;;;;;;1.85;0.50;;;18.20;49.50;;;;;;6247377;28;20543;-70
2023/03/05 18:08:31;;;;;;;1.85;0.50;;;18.20;49.50;;;;;;6251061;28;20033;-71
2023/03/05 18:11:32;;;;;;;4.03;0.82;;;18.20;49.50;;;;;;6250161;28;20033;-71
2023/03/05 18:14:32;;;;;;;4.35;0.80;;;18.20;49.50;;;;;;6268906;28;20490;-71
2023/03/05 18:17:33;;;;;;;2.13;0.60;;;18.20;49.50;;;;;;6248100;28;20032;-70
2023/03/05 18:20:36;;;;;;;1.48;0.65;;;18.20;49.60;;;;;;6244024;28;20036;-70
2023/03/05 18:23:36;;;;;;;1.10;0.50;;;18.20;49.40;;;;;;6244434;28;20088;-71
2023/03/05 18:26:37;;;;;;;4.57;0.70;;;18.20;49.60;;;;;;6244625;28;20578;-71
2023/03/05 18:29:38;;;;;;;4.30;0.80;;;18.20;49.40;;;;;;6244479;28;20049;-71
2023/03/05 18:32:38;;;;;;;4.57;0.60;;;18.20;49.50;;;;;;6244155;28;20399;-71
2023/03/05 18:35:39;;;;;;;1.98;0.50;;;18.20;49.50;;;;;;6257372;28;20055;-71
2023/03/05 18:38:40;;;;;;;2.65;0.70;;;18.20;49.50;;;;;;6231285;28;20032;-71
2023/03/05 18:41:40;;;;;;;1.35;0.63;;;18.20;49.50;;;;;;6261495;28;20029;-69
2023/03/05 18:44:41;;;;;;;1.98;0.47;;;18.20;49.50;;;;;;6226864;28;20627;-72
2023/03/05 18:47:42;;;;;;;1.30;0.47;;;18.20;49.50;;;;;;6241261;28;20071;-70
2023/03/05 18:50:44;;;;;;;2.70;0.75;;;18.20;49.50;;;;;;6268804;28;20036;-70
2023/03/05 18:53:45;;;;;;;3.50;0.73;;;18.10;49.50;;;;;;6250248;28;20021;-70
2023/03/05 18:56:45;;;;;;;1.40;0.50;;;18.20;49.70;;;;;;6268369;28;20108;-70
2023/03/05 18:59:46;;;;;;;2.35;0.60;;;18.20;49.50;;;;;;6242066;28;20071;-70
2023/03/05 19:02:47;;;;;;;2.05;0.40;;;18.20;49.50;;;;;;6239219;28;20021;-70
2023/03/05 19:05:49;;;;;;;1.35;0.47;;;18.20;49.60;;;;;;6255732;28;20025;-70
2023/03/05 19:08:56;;;;;;;7.72;0.68;;;18.20;49.50;;;;;;6222453;28;20080;-70
2023/03/05 19:11:56;;;;;;;1.83;0.63;;;18.20;49.50;;;;;;6248261;28;20485;-70